createdAt,value
2019-05-14T00:01:45.785Z,51.33
2019-05-14T00:04:21.926Z,51.69
2019-05-14T00:06:55.889Z,51.69
2019-05-14T00:09:28.861Z,51.75
2019-05-14T00:12:03.068Z,52.09
2019-05-14T00:14:40.258Z,52.69
2019-05-14T00:17:13.633Z,52.69
2019-05-14T00:19:47.925Z,52.28
2019-05-14T00:22:22.259Z,53.16
2019-05-14T00:24:56.653Z,53.71
2019-05-14T00:27:31.277Z,54.26
2019-05-14T00:30:06.330Z,54.37
2019-05-14T00:32:41.438Z,53.81
2019-05-14T00:35:17.750Z,53.94
2019-05-14T00:37:52.112Z,54.95
2019-05-14T00:40:27.302Z,55.10
2019-05-14T00:43:02.635Z,54.81
2019-05-14T00:45:38.657Z,55.01
2019-05-14T00:48:13.044Z,54.31
2019-05-14T00:50:47.275Z,55.14
2019-05-14T00:53:21.714Z,55.14
2019-05-14T00:55:55.941Z,55.29
2019-05-14T00:58:31.031Z,54.90
2019-05-14T01:01:05.325Z,55.22
2019-05-14T01:03:41.515Z,55.22
2019-05-14T01:06:15.907Z,55.00
2019-05-14T01:08:51.846Z,54.33
2019-05-14T01:11:25.915Z,53.55
2019-05-14T01:14:01.712Z,53.98
2019-05-14T01:16:35.930Z,53.98
2019-05-14T01:19:08.844Z,53.02
2019-05-14T01:21:42.935Z,53.65
2019-05-14T01:24:17.276Z,53.65
2019-05-14T01:26:52.328Z,53.43
2019-05-14T01:29:26.785Z,52.64
2019-05-14T01:32:01.237Z,52.45
2019-05-14T01:34:35.750Z,52.43
2019-05-14T01:37:11.656Z,52.90
2019-05-14T01:39:45.889Z,52.83
2019-05-14T01:42:18.787Z,52.67
2019-05-14T01:44:52.931Z,53.43
2019-05-14T01:47:25.674Z,52.57
2019-05-14T01:50:01.945Z,52.54
2019-05-14T01:52:35.911Z,53.00
2019-05-14T01:55:11.199Z,51.56
2019-05-14T01:57:44.924Z,52.35
2019-05-14T02:00:19.295Z,52.02
2019-05-14T02:02:53.793Z,51.68
2019-05-14T02:05:26.663Z,51.37
2019-05-14T02:08:01.789Z,51.55
2019-05-14T02:10:36.294Z,52.78
2019-05-14T02:13:12.320Z,52.78
2019-05-14T02:15:46.775Z,53.09
2019-05-14T02:18:21.579Z,53.06
2019-05-14T02:20:55.576Z,52.58
2019-05-14T02:23:31.894Z,53.26
2019-05-14T02:26:05.862Z,52.74
2019-05-14T02:28:38.808Z,52.74
2019-05-14T02:31:13.084Z,52.87
2019-05-14T02:33:50.393Z,53.09
2019-05-14T02:36:23.301Z,53.09
2019-05-14T02:39:00.439Z,53.91
2019-05-14T02:41:33.718Z,54.38
2019-05-14T02:44:09.811Z,54.63
2019-05-14T02:46:44.135Z,54.94
2019-05-14T02:49:19.486Z,54.67
2019-05-14T02:51:53.872Z,54.67
2019-05-14T02:54:29.714Z,55.15
2019-05-14T02:57:02.713Z,55.07
2019-05-14T02:59:39.345Z,55.37
2019-05-14T03:02:12.871Z,55.41
2019-05-14T03:04:45.661Z,55.04
2019-05-14T03:07:19.806Z,55.05
2019-05-14T03:09:52.793Z,55.44
2019-05-14T03:12:29.985Z,55.93
2019-05-14T03:15:02.862Z,55.88
2019-05-14T03:17:35.637Z,56.07
2019-05-14T03:20:11.269Z,56.47
2019-05-14T03:23:01.396Z,56.47
2019-05-14T03:25:21.660Z,56.79
2019-05-14T03:27:55.942Z,56.66
2019-05-14T03:30:32.163Z,56.74
2019-05-14T03:33:05.954Z,56.59
2019-05-14T03:35:49.113Z,56.60
2019-05-14T03:38:15.024Z,56.44
2019-05-14T03:40:49.419Z,56.57
2019-05-14T03:43:23.789Z,56.91
2019-05-14T03:45:59.373Z,56.98
2019-05-14T03:48:32.626Z,56.78
2019-05-14T03:51:09.060Z,56.79
2019-05-14T03:54:00.680Z,57.11
2019-05-14T03:56:19.321Z,57.24
2019-05-14T03:58:53.766Z,57.40
2019-05-14T04:01:29.604Z,57.40
2019-05-14T04:04:03.961Z,57.58
2019-05-14T04:06:40.101Z,57.03
2019-05-14T04:09:15.528Z,57.39
2019-05-14T04:11:52.745Z,57.11
2019-05-14T04:14:29.540Z,57.02
2019-05-14T04:17:11.218Z,56.61
2019-05-14T04:19:40.572Z,56.75
2019-05-14T04:22:19.042Z,57.44
2019-05-14T04:24:54.124Z,56.58
2019-05-14T04:27:30.208Z,56.53
2019-05-14T04:30:05.023Z,56.53
2019-05-14T04:32:39.670Z,56.33
2019-05-14T04:35:13.269Z,56.33
2019-05-14T04:37:49.604Z,55.12
2019-05-14T04:40:23.870Z,55.12
2019-05-14T04:42:59.182Z,55.05
2019-05-14T04:45:32.716Z,54.94
2019-05-14T04:48:24.091Z,54.54
2019-05-14T04:50:42.842Z,54.71
2019-05-14T04:53:15.681Z,53.99
2019-05-14T04:55:49.787Z,53.99
2019-05-14T04:58:24.072Z,54.04
2019-05-14T05:01:00.714Z,53.53
2019-05-14T05:03:34.773Z,53.53
2019-05-14T05:06:10.089Z,53.33
2019-05-14T05:08:44.683Z,53.14
2019-05-14T05:11:21.324Z,53.01
2019-05-14T05:13:54.923Z,52.98
2019-05-14T05:16:29.702Z,52.80
2019-05-14T05:19:02.664Z,51.95
2019-05-14T05:21:38.824Z,51.95
2019-05-14T05:24:12.263Z,52.20
2019-05-14T05:26:48.542Z,51.73
2019-05-14T05:29:23.295Z,51.73
2019-05-14T05:31:59.734Z,51.45
2019-05-14T05:34:33.954Z,50.97
2019-05-14T05:37:10.269Z,50.97
2019-05-14T05:39:44.696Z,50.70
2019-05-14T05:42:20.288Z,51.12
2019-05-14T05:44:54.724Z,50.96
2019-05-14T05:47:29.295Z,50.66
2019-05-14T05:50:04.942Z,51.30
2019-05-14T05:52:39.308Z,50.75
2019-05-14T05:55:14.270Z,50.76
2019-05-14T05:57:50.268Z,50.59
2019-05-14T06:00:40.307Z,50.55
2019-05-14T06:03:15.267Z,50.33
2019-05-14T06:05:50.627Z,50.16
2019-05-14T06:08:25.132Z,49.68
2019-05-14T06:10:59.881Z,48.70
2019-05-14T06:13:33.014Z,48.70
2019-05-14T06:16:06.166Z,48.93
2019-05-14T06:18:40.283Z,48.50
2019-05-14T06:21:18.715Z,48.97
2019-05-14T06:23:52.927Z,49.13
2019-05-14T06:26:29.016Z,49.13
2019-05-14T06:29:03.644Z,48.02
2019-05-14T06:31:38.691Z,48.26
2019-05-14T06:34:11.854Z,47.98
2019-05-14T06:36:48.585Z,48.15
2019-05-14T06:39:24.297Z,47.61
2019-05-14T06:41:58.858Z,47.68
2019-05-14T06:44:31.978Z,45.89
2019-05-14T06:47:04.639Z,45.99
2019-05-14T06:49:38.937Z,46.04
2019-05-14T06:52:13.253Z,44.89
2019-05-14T06:54:49.576Z,44.93
2019-05-14T06:57:24.271Z,44.93
2019-05-14T07:00:00.732Z,43.93
2019-05-14T07:02:34.651Z,43.80
2019-05-14T07:05:09.335Z,43.52
2019-05-14T07:07:44.107Z,42.92
2019-05-14T07:10:19.624Z,42.64
2019-05-14T07:12:53.000Z,42.51
2019-05-14T07:15:25.634Z,42.58
2019-05-14T07:17:59.883Z,42.06
2019-05-14T07:20:33.017Z,42.06
2019-05-14T07:23:08.230Z,41.69
2019-05-14T07:25:43.887Z,40.72
2019-05-14T07:28:19.681Z,40.63
2019-05-14T07:30:54.268Z,40.67
2019-05-14T07:33:30.212Z,40.59
2019-05-14T07:36:04.945Z,41.17
2019-05-14T07:38:39.205Z,42.08
2019-05-14T07:41:13.697Z,42.08
2019-05-14T07:43:48.347Z,42.49
2019-05-14T07:46:22.688Z,41.34
2019-05-14T07:49:07.220Z,41.34
2019-05-14T07:51:33.287Z,41.28
2019-05-14T07:54:08.319Z,40.67
2019-05-14T07:56:43.106Z,41.74
2019-05-14T07:59:18.139Z,38.70
2019-05-14T08:01:52.673Z,38.70
2019-05-14T08:04:28.952Z,37.63
2019-05-14T08:07:03.610Z,36.47
2019-05-14T08:09:38.955Z,37.07
2019-05-14T08:12:16.343Z,37.07
2019-05-14T08:15:10.185Z,37.24
2019-05-14T08:17:28.141Z,36.36
2019-05-14T08:20:04.118Z,36.42
2019-05-14T08:22:38.457Z,34.10
2019-05-14T08:25:14.284Z,34.10
2019-05-14T08:27:50.280Z,32.85
2019-05-14T08:30:24.939Z,32.85
2019-05-14T08:32:58.325Z,32.04
2019-05-14T08:35:35.129Z,32.83
2019-05-14T08:38:12.182Z,33.26
2019-05-14T08:40:48.672Z,32.74
2019-05-14T08:43:24.118Z,31.97
2019-05-14T08:45:58.967Z,32.50
2019-05-14T08:48:33.280Z,32.50
2019-05-14T08:51:09.160Z,32.94
2019-05-14T08:53:44.281Z,32.72
2019-05-14T08:56:19.269Z,33.77
2019-05-14T08:58:54.275Z,33.65
2019-05-14T09:01:29.398Z,35.31
2019-05-14T09:04:05.780Z,36.97
2019-05-14T09:06:38.802Z,37.06
2019-05-14T09:09:13.304Z,38.16
2019-05-14T09:11:50.420Z,39.92
2019-05-14T09:14:24.935Z,39.50
2019-05-14T09:17:00.121Z,38.16
2019-05-14T09:19:34.679Z,38.63
2019-05-14T09:22:09.550Z,39.05
2019-05-14T09:24:42.645Z,38.46
2019-05-14T09:27:19.137Z,39.42
2019-05-14T09:29:53.330Z,40.06
2019-05-14T09:32:29.210Z,40.41
2019-05-14T09:35:04.275Z,39.57
2019-05-14T09:37:39.538Z,39.00
2019-05-14T09:40:14.706Z,38.95
2019-05-14T09:42:49.962Z,37.43
2019-05-14T09:45:27.890Z,37.99
2019-05-14T09:48:03.624Z,35.74
2019-05-14T09:50:39.267Z,35.74
2019-05-14T09:53:14.930Z,34.99
2019-05-14T09:55:49.314Z,34.99
2019-05-14T09:58:28.291Z,34.94
2019-05-14T10:01:02.718Z,34.94
2019-05-14T10:03:35.670Z,33.11
2019-05-14T10:06:11.679Z,33.36
2019-05-14T10:08:48.405Z,33.78
2019-05-14T10:11:22.276Z,35.69
2019-05-14T10:13:59.699Z,35.52
2019-05-14T10:16:33.940Z,35.38
2019-05-14T10:19:08.648Z,36.24
2019-05-14T10:21:45.698Z,36.24
2019-05-14T10:24:20.273Z,36.58
2019-05-14T10:26:55.275Z,37.76
2019-05-14T10:29:29.722Z,37.08
2019-05-14T10:32:04.329Z,36.77
2019-05-14T10:34:38.777Z,36.52
2019-05-14T10:37:11.853Z,35.09
2019-05-14T10:39:44.691Z,32.55
2019-05-14T10:42:20.176Z,29.63
2019-05-14T10:44:55.268Z,28.60
2019-05-14T10:47:30.787Z,26.79
2019-05-14T10:50:03.680Z,27.82
2019-05-14T10:52:39.526Z,29.10
2019-05-14T10:55:14.284Z,27.97
2019-05-14T10:57:53.924Z,26.54
2019-05-14T11:00:25.285Z,25.66
2019-05-14T11:02:59.665Z,28.00
2019-05-14T11:05:34.942Z,27.76
2019-05-14T11:08:11.918Z,28.47
2019-05-14T11:10:43.867Z,29.32
2019-05-14T11:13:18.802Z,27.84
2019-05-14T11:15:52.564Z,28.57
2019-05-14T11:18:29.173Z,28.57
2019-05-14T11:21:18.690Z,25.53
2019-05-14T11:23:38.919Z,23.97
2019-05-14T11:26:15.177Z,21.99
2019-05-14T11:28:49.595Z,21.43
2019-05-14T11:31:23.931Z,21.43
2019-05-14T11:33:59.018Z,22.03
2019-05-14T11:36:34.335Z,23.91
2019-05-14T11:39:09.799Z,25.85
2019-05-14T11:41:42.986Z,26.06
2019-05-14T11:44:17.351Z,24.32
2019-05-14T11:46:57.860Z,24.32
2019-05-14T11:49:28.682Z,24.54
2019-05-14T11:52:07.640Z,25.25
2019-05-14T11:54:40.954Z,26.75
2019-05-14T11:57:14.078Z,28.22
2019-05-14T11:59:48.671Z,29.37
2019-05-14T12:02:24.276Z,30.17
2019-05-14T12:05:00.542Z,31.25
2019-05-14T12:07:35.704Z,30.62
2019-05-14T12:10:10.285Z,29.84
2019-05-14T12:12:45.080Z,27.65
2019-05-14T12:15:19.964Z,27.80
2019-05-14T12:17:54.349Z,27.80
2019-05-14T12:20:29.799Z,29.18
2019-05-14T12:23:08.808Z,31.08
2019-05-14T12:25:43.295Z,31.69
2019-05-14T12:28:19.183Z,32.65
2019-05-14T12:30:54.953Z,32.99
2019-05-14T12:33:31.717Z,35.85
2019-05-14T12:36:10.132Z,35.85
2019-05-14T12:38:44.450Z,37.99
2019-05-14T12:41:19.966Z,38.83
2019-05-14T12:43:55.395Z,38.89
2019-05-14T12:46:33.432Z,38.89
2019-05-14T12:49:11.590Z,32.29
2019-05-14T12:51:46.148Z,30.87
2019-05-14T12:54:23.408Z,26.84
2019-05-14T12:56:59.004Z,24.92
2019-05-14T12:59:34.961Z,21.66
2019-05-14T13:02:10.694Z,20.55
2019-05-14T13:04:44.709Z,20.55
2019-05-14T13:07:20.306Z,21.67
2019-05-14T13:09:58.306Z,27.03
2019-05-14T13:12:35.573Z,27.03
2019-05-14T13:15:12.408Z,30.76
2019-05-14T13:17:48.623Z,34.45
2019-05-14T13:20:23.449Z,36.44
2019-05-14T13:22:59.304Z,39.74
2019-05-14T13:25:35.288Z,39.74
2019-05-14T13:28:11.299Z,41.07
2019-05-14T13:30:48.848Z,41.55
2019-05-14T13:33:28.375Z,42.36
2019-05-14T13:36:02.429Z,43.07
2019-05-14T13:38:40.286Z,41.95
2019-05-14T13:41:16.307Z,42.43
2019-05-14T13:43:52.311Z,44.09
2019-05-14T13:46:29.576Z,44.60
2019-05-14T13:49:05.301Z,45.44
2019-05-14T13:51:41.561Z,45.89
2019-05-14T13:54:19.546Z,46.45
2019-05-14T13:59:29.312Z,45.58
2019-05-14T14:02:05.374Z,45.58
2019-05-14T14:04:43.908Z,46.88
2019-05-14T14:07:19.593Z,47.00
2019-05-14T14:09:58.962Z,45.71
2019-05-14T14:12:35.985Z,42.19
2019-05-14T14:15:16.482Z,39.91
2019-05-14T14:17:53.028Z,40.47
2019-05-14T14:20:29.319Z,41.89
2019-05-14T14:23:18.797Z,43.50
2019-05-14T14:25:45.306Z,43.10
2019-05-14T14:28:21.636Z,43.85
2019-05-14T14:30:56.964Z,44.33
2019-05-14T14:33:32.531Z,45.17
2019-05-14T14:36:08.766Z,45.96
2019-05-14T14:38:44.135Z,46.47
2019-05-14T14:41:28.405Z,47.48
2019-05-14T14:44:10.300Z,47.48
2019-05-14T14:46:48.226Z,48.98
2019-05-14T14:49:25.366Z,50.87
2019-05-14T14:52:01.645Z,52.20
2019-05-14T14:54:40.496Z,53.13
2019-05-14T14:57:20.461Z,52.39
2019-05-14T14:59:58.317Z,51.40
2019-05-14T15:02:35.576Z,51.94
2019-05-14T15:05:15.319Z,49.77
2019-05-14T15:08:00.213Z,49.57
2019-05-14T15:10:39.269Z,49.18
2019-05-14T15:13:15.320Z,47.86
2019-05-14T15:15:55.315Z,48.13
2019-05-14T15:18:33.039Z,48.52
2019-05-14T15:21:14.987Z,48.52
2019-05-14T15:24:07.115Z,48.03
2019-05-14T15:26:39.338Z,49.19
2019-05-14T15:29:18.728Z,49.19
2019-05-14T15:32:00.926Z,49.32
2019-05-14T15:34:41.323Z,49.00
2019-05-14T15:37:22.834Z,48.58
2019-05-14T15:40:04.087Z,49.39
2019-05-14T15:42:41.485Z,49.93
2019-05-14T15:45:30.152Z,49.08
2019-05-14T15:48:09.064Z,48.96
2019-05-14T15:50:49.903Z,48.56
2019-05-14T15:53:29.063Z,48.68
2019-05-14T15:56:08.140Z,48.59
2019-05-14T15:58:46.074Z,48.40
2019-05-14T16:01:21.315Z,47.31
2019-05-14T16:04:01.318Z,47.52
2019-05-14T16:06:40.752Z,47.86
2019-05-14T16:11:11.345Z,48.64
2019-05-14T16:13:49.391Z,48.64
2019-05-14T16:16:28.957Z,48.94
2019-05-14T16:19:10.314Z,49.96
2019-05-14T16:21:47.606Z,49.91
2019-05-14T16:24:25.356Z,50.72
2019-05-14T16:27:03.041Z,48.64
2019-05-14T16:29:47.439Z,48.64
2019-05-14T16:32:28.501Z,45.64
2019-05-14T16:35:08.898Z,45.80
2019-05-14T16:37:48.387Z,45.80
2019-05-14T16:40:30.003Z,43.59
2019-05-14T16:43:08.757Z,43.59
2019-05-14T16:45:44.904Z,42.44
2019-05-14T16:48:25.315Z,42.25
2019-05-14T16:51:03.813Z,42.09
2019-05-14T16:53:50.961Z,42.64
2019-05-14T16:56:28.411Z,41.89
2019-05-14T16:59:04.741Z,41.89
2019-05-14T17:01:44.332Z,41.38
2019-05-14T17:04:29.139Z,41.77
2019-05-14T17:07:09.507Z,40.99
2019-05-14T17:09:49.511Z,40.86
2019-05-14T17:13:28.443Z,41.81
2019-05-14T17:16:10.333Z,40.46
2019-05-14T17:18:48.781Z,40.46
2019-05-14T17:21:29.394Z,41.02
2019-05-14T17:24:09.328Z,41.68
2019-05-14T17:26:50.357Z,41.88
2019-05-14T17:29:40.183Z,41.55
2019-05-14T17:32:30.357Z,41.55
2019-05-14T17:35:10.690Z,41.93
2019-05-14T17:37:48.321Z,41.93
2019-05-14T17:40:28.050Z,41.10
2019-05-14T17:43:09.638Z,40.41
2019-05-14T17:45:54.461Z,39.47
2019-05-14T17:48:33.044Z,39.47
2019-05-14T17:51:10.719Z,39.51
2019-05-14T17:53:58.728Z,39.96
2019-05-14T17:56:39.029Z,40.04
2019-05-14T17:59:19.320Z,39.61
2019-05-14T18:01:58.243Z,39.61
2019-05-14T18:04:51.571Z,38.90
2019-05-14T18:07:30.513Z,39.24
2019-05-14T18:10:14.603Z,39.43
2019-05-14T18:12:51.140Z,39.88
2019-05-14T18:15:39.301Z,39.90
2019-05-14T18:18:23.470Z,39.90
2019-05-14T18:21:24.996Z,40.32
2019-05-14T18:24:11.981Z,40.64
2019-05-14T18:26:50.054Z,40.93
2019-05-14T18:29:41.328Z,40.53
2019-05-14T18:32:24.583Z,40.63
2019-05-14T18:35:06.029Z,40.52
2019-05-14T18:37:57.028Z,40.30
2019-05-14T18:40:36.976Z,40.50
2019-05-14T18:43:20.368Z,41.40
2019-05-14T18:46:01.960Z,41.60
2019-05-14T18:48:43.057Z,41.28
2019-05-14T18:51:28.541Z,41.20
2019-05-14T18:54:11.364Z,41.59
2019-05-14T18:56:55.664Z,41.73
2019-05-14T18:59:54.688Z,42.06
2019-05-14T19:02:34.369Z,41.99
2019-05-14T19:05:18.314Z,42.04
2019-05-14T19:08:02.465Z,42.18
2019-05-14T19:10:46.356Z,42.25
2019-05-14T19:13:28.132Z,42.25
2019-05-14T19:16:08.335Z,42.51
2019-05-14T19:18:51.326Z,42.79
2019-05-14T19:21:38.443Z,42.79
2019-05-14T19:24:19.960Z,43.06
2019-05-14T19:27:03.613Z,43.04
2019-05-14T19:29:44.632Z,42.18
2019-05-14T19:32:29.044Z,43.20
2019-05-14T19:35:08.607Z,43.41
2019-05-14T19:38:58.300Z,43.34
2019-05-14T19:41:28.147Z,43.58
2019-05-14T19:50:54.855Z,43.84
2019-05-14T19:53:54.673Z,43.96
2019-05-14T19:57:01.110Z,43.74
2019-05-14T20:00:18.547Z,43.67
2019-05-14T20:03:25.458Z,43.77
2019-05-14T20:06:46.037Z,43.59
2019-05-14T20:10:29.468Z,43.83
2019-05-14T20:13:39.995Z,43.92
2019-05-14T20:17:02.728Z,43.99
2019-05-14T20:21:08.626Z,43.78
2019-05-14T20:23:14.203Z,43.48
2019-05-14T20:26:14.429Z,44.22
2019-05-14T20:29:11.463Z,44.06
2019-05-14T20:32:19.383Z,44.58
2019-05-14T20:35:08.864Z,44.27
2019-05-14T20:37:49.368Z,44.53
2019-05-14T20:40:28.877Z,44.46
2019-05-14T20:43:10.475Z,44.37
2019-05-14T20:45:51.663Z,44.48
2019-05-14T20:48:32.320Z,44.28
2019-05-14T20:51:11.317Z,44.39
2019-05-14T20:53:49.694Z,44.59
2019-05-14T20:56:30.921Z,44.60
2019-05-14T20:59:11.703Z,44.79
2019-05-14T21:01:48.012Z,45.08
2019-05-14T21:04:28.235Z,44.98
2019-05-14T21:07:11.442Z,44.98
2019-05-14T21:09:49.284Z,45.00
2019-05-14T21:12:28.884Z,45.21
2019-05-14T21:15:04.317Z,45.21
2019-05-14T21:17:40.764Z,44.73
2019-05-14T21:20:18.560Z,44.92
2019-05-14T21:22:58.183Z,44.95
2019-05-14T21:25:32.495Z,44.74
2019-05-14T21:28:11.358Z,44.74
2019-05-14T21:30:48.698Z,45.10
2019-05-14T21:33:23.324Z,44.97
2019-05-14T21:35:59.255Z,45.12
2019-05-14T21:38:34.590Z,45.56
2019-05-14T21:41:09.465Z,45.54
2019-05-14T21:43:44.407Z,45.45
2019-05-14T21:46:19.373Z,45.52
2019-05-14T21:48:54.319Z,45.57
2019-05-14T21:51:28.761Z,45.35
2019-05-14T21:54:02.945Z,45.54
2019-05-14T21:56:38.670Z,45.66
2019-05-14T21:59:14.390Z,45.34
2019-05-14T22:01:49.618Z,45.73
2019-05-14T22:04:23.959Z,45.66
2019-05-14T22:06:58.595Z,46.06
2019-05-14T22:09:32.952Z,45.90
2019-05-14T22:12:05.874Z,46.28
2019-05-14T22:14:40.303Z,46.37
2019-05-14T22:17:14.997Z,45.90
2019-05-14T22:19:53.374Z,46.26
2019-05-14T22:22:39.165Z,46.67
2019-05-14T22:25:15.482Z,46.67
2019-05-14T22:28:10.633Z,46.84
2019-05-14T22:30:30.980Z,46.84
2019-05-14T22:33:08.481Z,46.85
2019-05-14T22:35:41.855Z,47.10
2019-05-14T22:38:20.015Z,47.10
2019-05-14T22:40:53.131Z,47.07
2019-05-14T22:43:28.847Z,47.50
2019-05-14T22:46:01.706Z,47.50
2019-05-14T22:48:37.812Z,47.85
2019-05-14T22:51:10.704Z,47.93
2019-05-14T22:53:44.798Z,48.24
2019-05-14T22:56:18.965Z,48.43
2019-05-14T22:58:53.310Z,48.72
2019-05-14T23:01:28.892Z,48.72
2019-05-14T23:04:03.702Z,48.94
2019-05-14T23:06:38.262Z,48.94
2019-05-14T23:09:16.389Z,48.70
2019-05-14T23:11:50.289Z,49.15
2019-05-14T23:14:24.765Z,49.25
2019-05-14T23:16:59.342Z,49.38
2019-05-14T23:19:36.357Z,48.72
2019-05-14T23:22:12.354Z,48.73
2019-05-14T23:24:50.294Z,49.37
2019-05-14T23:27:24.953Z,49.34
2019-05-14T23:29:59.355Z,49.26
2019-05-14T23:32:33.727Z,49.26
2019-05-14T23:35:08.749Z,49.74
2019-05-14T23:37:41.878Z,50.18
2019-05-14T23:40:16.300Z,49.86
2019-05-14T23:42:50.950Z,50.03
2019-05-14T23:45:24.950Z,50.57
2019-05-14T23:47:58.575Z,50.30
2019-05-14T23:50:32.791Z,50.58
2019-05-14T23:53:09.489Z,50.68
2019-05-14T23:55:44.286Z,50.83
2019-05-14T23:58:20.556Z,51.13
